sensor_id;sensor_type;location;lat;lon;timestamp;pressure;altitude;pressure_sealevel;temperature;humidity
60715;BME280;46564;53.096;8.246;2023-03-13T00:04:32;100023.06;;;6.21;96.70
60715;BME280;46564;53.096;8.246;2023-03-13T00:09:43;100011.06;;;6.27;96.67
60715;BME280;46564;53.096;8.246;2023-03-13T00:15:10;100004.13;;;6.26;96.54
60715;BME280;46564;53.096;8.246;2023-03-13T00:20:15;99992.63;;;6.16;96.63
60715;BME280;46564;53.096;8.246;2023-03-13T00:25:21;99990.97;;;6.18;96.54
60715;BME280;46564;53.096;8.246;2023-03-13T00:30:25;99989.50;;;6.33;96.44
60715;BME280;46564;53.096;8.246;2023-03-13T00:35:32;99971.38;;;6.36;96.61
60715;BME280;46564;53.096;8.246;2023-03-13T00:40:36;99966.94;;;6.32;96.50
60715;BME280;46564;53.096;8.246;2023-03-13T00:45:58;99956.38;;;6.24;96.35
60715;BME280;46564;53.096;8.246;2023-03-13T00:51:06;99948.69;;;6.29;96.52
60715;BME280;46564;53.096;8.246;2023-03-13T00:56:13;99945.38;;;6.36;96.36
60715;BME280;46564;53.096;8.246;2023-03-13T01:01:22;99932.34;;;6.34;96.40
60715;BME280;46564;53.096;8.246;2023-03-13T01:06:32;99914.09;;;6.33;96.62
60715;BME280;46564;53.096;8.246;2023-03-13T01:11:41;99896.81;;;6.35;96.44
60715;BME280;46564;53.096;8.246;2023-03-13T01:16:47;99888.09;;;6.33;96.48
60715;BME280;46564;53.096;8.246;2023-03-13T01:21:55;99869.13;;;6.37;96.84
60715;BME280;46564;53.096;8.246;2023-03-13T01:26:58;99860.28;;;6.29;96.77
60715;BME280;46564;53.096;8.246;2023-03-13T01:32:04;99843.84;;;6.30;96.88
60715;BME280;46564;53.096;8.246;2023-03-13T01:37:08;99829.88;;;6.23;96.97
60715;BME280;46564;53.096;8.246;2023-03-13T01:42:12;99816.94;;;6.28;97.01
60715;BME280;46564;53.096;8.246;2023-03-13T01:47:15;99797.94;;;6.32;97.02
60715;BME280;46564;53.096;8.246;2023-03-13T01:52:47;99789.31;;;6.33;97.15
60715;BME280;46564;53.096;8.246;2023-03-13T01:58:00;99776.13;;;6.24;97.32
60715;BME280;46564;53.096;8.246;2023-03-13T02:03:11;99755.53;;;6.34;97.25
60715;BME280;46564;53.096;8.246;2023-03-13T02:08:23;99738.25;;;6.36;97.41
60715;BME280;46564;53.096;8.246;2023-03-13T02:13:31;99732.19;;;6.37;97.35
60715;BME280;46564;53.096;8.246;2023-03-13T02:18:37;99718.31;;;6.37;97.65
60715;BME280;46564;53.096;8.246;2023-03-13T02:23:51;99703.56;;;6.36;97.49
60715;BME280;46564;53.096;8.246;2023-03-13T02:29:00;99689.78;;;6.42;97.65
60715;BME280;46564;53.096;8.246;2023-03-13T02:34:05;99682.81;;;6.39;97.63
60715;BME280;46564;53.096;8.246;2023-03-13T02:39:15;99666.34;;;6.40;97.83
60715;BME280;46564;53.096;8.246;2023-03-13T02:44:28;99642.13;;;6.41;98.08
60715;BME280;46564;53.096;8.246;2023-03-13T02:49:33;99625.72;;;6.48;98.13
60715;BME280;46564;53.096;8.246;2023-03-13T02:54:52;99621.44;;;6.49;98.54
60715;BME280;46564;53.096;8.246;2023-03-13T03:00:11;99607.53;;;6.50;98.60
60715;BME280;46564;53.096;8.246;2023-03-13T03:05:41;99594.56;;;6.51;98.83
60715;BME280;46564;53.096;8.246;2023-03-13T03:10:53;99579.84;;;6.52;99.08
60715;BME280;46564;53.096;8.246;2023-03-13T03:16:51;99561.69;;;6.55;99.05
60715;BME280;46564;53.096;8.246;2023-03-13T03:22:52;99542.56;;;6.51;99.21
60715;BME280;46564;53.096;8.246;2023-03-13T03:40:52;99501.13;;;6.64;99.70
60715;BME280;46564;53.096;8.246;2023-03-13T03:59:14;99453.63;;;6.80;100.00
60715;BME280;46564;53.096;8.246;2023-03-13T04:12:31;99410.31;;;6.88;100.00
60715;BME280;46564;53.096;8.246;2023-03-13T04:17:59;99378.28;;;6.94;100.00
60715;BME280;46564;53.096;8.246;2023-03-13T04:24:09;99373.91;;;6.92;100.00
60715;BME280;46564;53.096;8.246;2023-03-13T04:29:39;99355.75;;;6.96;100.00
60715;BME280;46564;53.096;8.246;2023-03-13T04:35:35;99356.63;;;6.97;100.00
60715;BME280;46564;53.096;8.246;2023-03-13T04:41:18;99354.97;;;7.08;100.00
60715;BME280;46564;53.096;8.246;2023-03-13T04:46:54;99339.41;;;7.14;100.00
60715;BME280;46564;53.096;8.246;2023-03-13T04:52:17;99324.72;;;7.22;100.00
60715;BME280;46564;53.096;8.246;2023-03-13T04:58:04;99310.91;;;7.33;100.00
60715;BME280;46564;53.096;8.246;2023-03-13T05:03:19;99309.19;;;7.33;100.00
60715;BME280;46564;53.096;8.246;2023-03-13T05:08:47;99297.00;;;7.34;100.00
60715;BME280;46564;53.096;8.246;2023-03-13T05:14:08;99287.53;;;7.42;100.00
60715;BME280;46564;53.096;8.246;2023-03-13T05:19:23;99274.56;;;7.54;100.00
60715;BME280;46564;53.096;8.246;2023-03-13T05:24:53;99265.91;;;7.54;100.00
60715;BME280;46564;53.096;8.246;2023-03-13T05:30:24;99260.72;;;7.65;100.00
60715;BME280;46564;53.096;8.246;2023-03-13T05:35:47;99249.47;;;7.72;100.00
60715;BME280;46564;53.096;8.246;2023-03-13T05:41:12;99232.13;;;7.78;100.00
60715;BME280;46564;53.096;8.246;2023-03-13T05:46:32;99223.47;;;7.92;100.00
60715;BME280;46564;53.096;8.246;2023-03-13T05:52:09;99209.59;;;8.02;100.00
60715;BME280;46564;53.096;8.246;2023-03-13T05:57:11;99210.47;;;8.07;100.00
60715;BME280;46564;53.096;8.246;2023-03-13T06:02:34;99200.09;;;8.20;100.00
60715;BME280;46564;53.096;8.246;2023-03-13T06:07:37;99192.25;;;8.24;100.00
60715;BME280;46564;53.096;8.246;2023-03-13T06:12:39;99179.22;;;8.40;100.00
60715;BME280;46564;53.096;8.246;2023-03-13T06:17:44;99170.56;;;8.52;100.00
60715;BME280;46564;53.096;8.246;2023-03-13T06:22:45;99160.97;;;8.58;100.00
60715;BME280;46564;53.096;8.246;2023-03-13T06:27:47;99174.88;;;8.77;100.00
60715;BME280;46564;53.096;8.246;2023-03-13T06:32:48;99169.63;;;8.90;100.00
60715;BME280;46564;53.096;8.246;2023-03-13T06:37:51;99159.19;;;8.97;100.00
60715;BME280;46564;53.096;8.246;2023-03-13T06:42:52;99158.28;;;9.12;100.00
60715;BME280;46564;53.096;8.246;2023-03-13T06:47:54;99166.06;;;9.20;100.00
60715;BME280;46564;53.096;8.246;2023-03-13T06:52:56;99164.31;;;9.33;100.00
60715;BME280;46564;53.096;8.246;2023-03-13T06:57:58;99154.69;;;9.40;100.00
60715;BME280;46564;53.096;8.246;2023-03-13T07:03:00;99144.22;;;9.46;100.00
60715;BME280;46564;53.096;8.246;2023-03-13T07:08:02;99144.22;;;9.50;100.00
60715;BME280;46564;53.096;8.246;2023-03-13T07:13:04;99151.97;;;9.64;100.00
60715;BME280;46564;53.096;8.246;2023-03-13T07:18:06;99152.78;;;9.71;100.00
60715;BME280;46564;53.096;8.246;2023-03-13T07:23:08;99143.13;;;9.84;100.00
60715;BME280;46564;53.096;8.246;2023-03-13T07:28:09;99151.78;;;9.92;100.00
60715;BME280;46564;53.096;8.246;2023-03-13T07:33:11;99162.19;;;10.04;100.00
60715;BME280;46564;53.096;8.246;2023-03-13T07:38:13;99158.69;;;10.05;100.00
60715;BME280;46564;53.096;8.246;2023-03-13T07:43:14;99152.56;;;10.09;100.00
60715;BME280;46564;53.096;8.246;2023-03-13T07:48:16;99148.16;;;10.13;100.00
60715;BME280;46564;53.096;8.246;2023-03-13T07:53:17;99142.03;;;10.17;100.00
60715;BME280;46564;53.096;8.246;2023-03-13T07:58:23;99137.63;;;10.27;100.00
60715;BME280;46564;53.096;8.246;2023-03-13T08:03:25;99135.78;;;10.38;100.00
60715;BME280;46564;53.096;8.246;2023-03-13T08:08:28;99141.03;;;10.38;100.00
60715;BME280;46564;53.096;8.246;2023-03-13T08:13:31;99137.50;;;10.42;100.00
60715;BME280;46564;53.096;8.246;2023-03-13T08:18:35;99139.25;;;10.43;100.00
60715;BME280;46564;53.096;8.246;2023-03-13T08:23:37;99127.00;;;10.47;100.00
60715;BME280;46564;53.096;8.246;2023-03-13T08:28:39;99126.94;;;10.52;100.00
60715;BME280;46564;53.096;8.246;2023-03-13T08:33:42;99146.16;;;10.51;100.00
60715;BME280;46564;53.096;8.246;2023-03-13T08:38:45;99119.94;;;10.58;100.00
60715;BME280;46564;53.096;8.246;2023-03-13T08:43:50;99124.25;;;10.61;100.00
60715;BME280;46564;53.096;8.246;2023-03-13T08:48:53;99120.72;;;10.65;100.00
60715;BME280;46564;53.096;8.246;2023-03-13T08:53:57;99138.91;;;10.77;100.00
60715;BME280;46564;53.096;8.246;2023-03-13T08:59:00;57128.34;;;-147.53;100.00
60715;BME280;46564;53.096;8.246;2023-03-13T09:04:03;57128.34;;;-147.53;100.00
60715;BME280;46564;53.096;8.246;2023-03-13T09:09:06;57128.34;;;-147.53;100.00
60715;BME280;46564;53.096;8.246;2023-03-13T09:14:09;57128.34;;;-147.53;100.00
60715;BME280;46564;53.096;8.246;2023-03-13T09:19:11;57128.34;;;-147.53;100.00
60715;BME280;46564;53.096;8.246;2023-03-13T09:24:13;57128.34;;;-147.53;100.00
60715;BME280;46564;53.096;8.246;2023-03-13T09:29:15;57128.34;;;-147.53;100.00
60715;BME280;46564;53.096;8.246;2023-03-13T09:34:16;57128.34;;;-147.53;100.00
60715;BME280;46564;53.096;8.246;2023-03-13T09:39:18;57128.34;;;-147.53;100.00
60715;BME280;46564;53.096;8.246;2023-03-13T09:44:27;57128.34;;;-147.53;100.00
60715;BME280;46564;53.096;8.246;2023-03-13T09:49:36;99138.91;;;10.77;100.00
60715;BME280;46564;53.096;8.246;2023-03-13T09:55:00;57128.34;;;-147.53;100.00
60715;BME280;46564;53.096;8.246;2023-03-13T10:00:11;99138.91;;;10.77;100.00
60715;BME280;46564;53.096;8.246;2023-03-13T10:05:24;99123.59;;;12.44;96.39
60715;BME280;46564;53.096;8.246;2023-03-13T10:15:50;99115.94;;;12.32;94.01
60715;BME280;46564;53.096;8.246;2023-03-13T10:20:59;99115.41;;;12.63;92.96
60715;BME280;46564;53.096;8.246;2023-03-13T10:26:02;99120.38;;;12.78;91.98
60715;BME280;46564;53.096;8.246;2023-03-13T10:31:12;99123.72;;;12.86;90.93
60715;BME280;46564;53.096;8.246;2023-03-13T10:36:15;99106.16;;;12.90;90.31
60715;BME280;46564;53.096;8.246;2023-03-13T10:41:29;99122.19;;;12.76;90.01
60715;BME280;46564;53.096;8.246;2023-03-13T10:46:35;99102.13;;;12.72;89.83
60715;BME280;46564;53.096;8.246;2023-03-13T10:51:46;99098.50;;;12.78;90.19
60715;BME280;46564;53.096;8.246;2023-03-13T10:56:51;99103.63;;;12.85;89.45
60715;BME280;46564;53.096;8.246;2023-03-13T11:01:59;99106.84;;;13.43;88.88
60715;BME280;46564;53.096;8.246;2023-03-13T11:07:05;57128.34;;;-147.53;100.00
60715;BME280;46564;53.096;8.246;2023-03-13T11:12:19;57128.34;;;-147.53;100.00
60715;BME280;46564;53.096;8.246;2023-03-13T11:17:36;57128.34;;;-147.53;100.00
60715;BME280;46564;53.096;8.246;2023-03-13T11:28:27;57128.34;;;-147.53;100.00
60715;BME280;46564;53.096;8.246;2023-03-13T11:33:46;57128.34;;;-147.53;100.00
60715;BME280;46564;53.096;8.246;2023-03-13T11:39:02;57128.34;;;-147.53;100.00
60715;BME280;46564;53.096;8.246;2023-03-13T11:44:15;57128.34;;;-147.53;100.00
60715;BME280;46564;53.096;8.246;2023-03-13T11:49:43;57128.34;;;-147.53;100.00
60715;BME280;46564;53.096;8.246;2023-03-13T11:55:13;57128.34;;;-147.53;100.00
60715;BME280;46564;53.096;8.246;2023-03-13T12:00:30;57128.34;;;-147.53;100.00
60715;BME280;46564;53.096;8.246;2023-03-13T12:05:40;57128.34;;;-147.53;100.00
60715;BME280;46564;53.096;8.246;2023-03-13T12:10:56;57128.34;;;-147.53;100.00
60715;BME280;46564;53.096;8.246;2023-03-13T12:16:06;57128.34;;;-147.53;100.00
60715;BME280;46564;53.096;8.246;2023-03-13T12:21:29;57128.34;;;-147.53;100.00
60715;BME280;46564;53.096;8.246;2023-03-13T12:26:39;99106.84;;;13.43;88.88
60715;BME280;46564;53.096;8.246;2023-03-13T12:31:50;99024.06;;;15.56;72.08
60715;BME280;46564;53.096;8.246;2023-03-13T12:37:08;99011.41;;;15.67;71.12
60715;BME280;46564;53.096;8.246;2023-03-13T12:42:19;99002.28;;;15.78;70.54
60715;BME280;46564;53.096;8.246;2023-03-13T12:47:39;98998.53;;;15.85;70.25
60715;BME280;46564;53.096;8.246;2023-03-13T13:13:53;98954.59;;;15.84;66.66
60715;BME280;46564;53.096;8.246;2023-03-13T13:18:55;98945.00;;;15.81;66.34
60715;BME280;46564;53.096;8.246;2023-03-13T13:39:41;98921.13;;;15.58;65.29
60715;BME280;46564;53.096;8.246;2023-03-13T13:45:01;98908.91;;;15.82;65.35
60715;BME280;46564;53.096;8.246;2023-03-13T13:50:17;98913.69;;;16.21;64.23
60715;BME280;46564;53.096;8.246;2023-03-13T14:00:35;98896.38;;;16.37;64.18
60715;BME280;46564;53.096;8.246;2023-03-13T14:05:39;98890.13;;;16.40;64.33
60715;BME280;46564;53.096;8.246;2023-03-13T14:10:53;98894.72;;;16.35;64.14
60715;BME280;46564;53.096;8.246;2023-03-13T14:16:33;98883.69;;;16.23;64.13
60715;BME280;46564;53.096;8.246;2023-03-13T14:21:37;98878.84;;;16.35;65.01
60715;BME280;46564;53.096;8.246;2023-03-13T14:26:40;98878.25;;;16.28;64.21
60715;BME280;46564;53.096;8.246;2023-03-13T14:31:50;98866.16;;;16.21;63.83
60715;BME280;46564;53.096;8.246;2023-03-13T14:36:56;98875.28;;;16.12;63.80
60715;BME280;46564;53.096;8.246;2023-03-13T14:42:17;98878.31;;;16.01;64.30
60715;BME280;46564;53.096;8.246;2023-03-13T14:47:26;98864.53;;;15.93;62.96
60715;BME280;46564;53.096;8.246;2023-03-13T14:52:32;98880.16;;;15.99;62.51
60715;BME280;46564;53.096;8.246;2023-03-13T14:57:34;98887.19;;;15.99;61.12
60715;BME280;46564;53.096;8.246;2023-03-13T15:02:36;98881.91;;;16.00;60.86
60715;BME280;46564;53.096;8.246;2023-03-13T15:12:43;98885.72;;;15.92;59.03
60715;BME280;46564;53.096;8.246;2023-03-13T15:17:45;98878.13;;;15.82;58.61
60715;BME280;46564;53.096;8.246;2023-03-13T15:22:46;98859.28;;;15.66;59.13
60715;BME280;46564;53.096;8.246;2023-03-13T15:27:49;98857.59;;;15.64;59.98
60715;BME280;46564;53.096;8.246;2023-03-13T15:32:50;98852.31;;;15.64;60.08
60715;BME280;46564;53.096;8.246;2023-03-13T15:37:53;98851.25;;;15.69;60.60
60715;BME280;46564;53.096;8.246;2023-03-13T15:42:55;98837.56;;;15.58;60.50
60715;BME280;46564;53.096;8.246;2023-03-13T15:47:58;98831.00;;;15.45;61.04
60715;BME280;46564;53.096;8.246;2023-03-13T15:53:00;98816.41;;;15.34;61.47
60715;BME280;46564;53.096;8.246;2023-03-13T15:58:01;98802.41;;;15.32;61.75
60715;BME280;46564;53.096;8.246;2023-03-13T16:03:03;98800.06;;;15.23;62.29
60715;BME280;46564;53.096;8.246;2023-03-13T16:08:04;98793.63;;;15.32;62.28
60715;BME280;46564;53.096;8.246;2023-03-13T16:13:06;98804.59;;;15.19;62.52
60715;BME280;46564;53.096;8.246;2023-03-13T16:18:16;98799.69;;;15.09;62.69
60715;BME280;46564;53.096;8.246;2023-03-13T16:23:19;98805.25;;;14.99;62.96
60715;BME280;46564;53.096;8.246;2023-03-13T16:28:21;98808.81;;;14.98;63.48
60715;BME280;46564;53.096;8.246;2023-03-13T16:33:22;98812.25;;;15.00;63.23
60715;BME280;46564;53.096;8.246;2023-03-13T16:38:24;98816.91;;;14.92;61.72
60715;BME280;46564;53.096;8.246;2023-03-13T16:43:25;98818.41;;;14.73;60.26
60715;BME280;46564;53.096;8.246;2023-03-13T16:48:27;98819.88;;;14.52;59.27
60715;BME280;46564;53.096;8.246;2023-03-13T16:53:28;98819.53;;;14.34;58.39
60715;BME280;46564;53.096;8.246;2023-03-13T16:58:30;98819.22;;;14.15;58.22
60715;BME280;46564;53.096;8.246;2023-03-13T17:03:31;98794.94;;;14.05;58.45
60715;BME280;46564;53.096;8.246;2023-03-13T17:08:33;98791.06;;;13.87;58.54
60715;BME280;46564;53.096;8.246;2023-03-13T17:13:34;98796.69;;;13.73;59.09
60715;BME280;46564;53.096;8.246;2023-03-13T17:18:36;98800.50;;;13.63;59.58
60715;BME280;46564;53.096;8.246;2023-03-13T17:23:38;98797.38;;;13.49;60.02
60715;BME280;46564;53.096;8.246;2023-03-13T17:28:40;98798.63;;;13.34;60.68
60715;BME280;46564;53.096;8.246;2023-03-13T17:33:41;98793.75;;;13.18;61.05
60715;BME280;46564;53.096;8.246;2023-03-13T17:38:44;98795.53;;;13.16;61.59
60715;BME280;46564;53.096;8.246;2023-03-13T17:43:46;98796.66;;;13.06;62.17
60715;BME280;46564;53.096;8.246;2023-03-13T17:48:52;98796.88;;;12.97;62.59
60715;BME280;46564;53.096;8.246;2023-03-13T17:53:54;98805.84;;;12.88;63.01
60715;BME280;46564;53.096;8.246;2023-03-13T17:58:58;98806.03;;;12.80;63.71
60715;BME280;46564;53.096;8.246;2023-03-13T18:04:00;98805.59;;;12.63;64.04
60715;BME280;46564;53.096;8.246;2023-03-13T18:09:05;98811.97;;;12.51;64.50
60715;BME280;46564;53.096;8.246;2023-03-13T18:14:08;98820.91;;;12.42;65.05
60715;BME280;46564;53.096;8.246;2023-03-13T18:19:22;98828.19;;;12.28;65.51
60715;BME280;46564;53.096;8.246;2023-03-13T18:24:24;98843.47;;;12.09;66.08
60715;BME280;46564;53.096;8.246;2023-03-13T18:29:26;98857.78;;;11.91;66.44
60715;BME280;46564;53.096;8.246;2023-03-13T18:34:28;98851.25;;;11.66;67.13
60715;BME280;46564;53.096;8.246;2023-03-13T18:39:31;57128.34;;;-147.53;100.00
60715;BME280;46564;53.096;8.246;2023-03-13T18:44:33;98845.63;;;11.38;68.13
60715;BME280;46564;53.096;8.246;2023-03-13T18:49:34;98833.53;;;11.29;68.68
60715;BME280;46564;53.096;8.246;2023-03-13T18:54:36;98831.00;;;11.25;68.83
60715;BME280;46564;53.096;8.246;2023-03-13T18:59:38;98808.25;;;11.27;68.82
60715;BME280;46564;53.096;8.246;2023-03-13T19:04:40;98816.13;;;11.27;68.75
60715;BME280;46564;53.096;8.246;2023-03-13T19:09:41;98818.03;;;11.17;68.72
60715;BME280;46564;53.096;8.246;2023-03-13T19:14:46;98816.13;;;11.25;68.54
60715;BME280;46564;53.096;8.246;2023-03-13T19:19:48;98823.16;;;11.23;68.60
60715;BME280;46564;53.096;8.246;2023-03-13T19:24:50;98808.25;;;11.27;68.61
60715;BME280;46564;53.096;8.246;2023-03-13T19:29:51;98796.03;;;11.26;68.71
60715;BME280;46564;53.096;8.246;2023-03-13T19:34:53;98797.09;;;11.17;68.97
60715;BME280;46564;53.096;8.246;2023-03-13T19:39:54;98785.78;;;11.13;69.21
60715;BME280;46564;53.096;8.246;2023-03-13T19:44:56;98770.16;;;11.07;69.47
60715;BME280;46564;53.096;8.246;2023-03-13T19:49:57;98775.56;;;10.98;69.96
60715;BME280;46564;53.096;8.246;2023-03-13T19:54:59;98784.41;;;10.91;70.01
60715;BME280;46564;53.096;8.246;2023-03-13T20:00:06;98778.44;;;10.83;70.49
60715;BME280;46564;53.096;8.246;2023-03-13T20:05:12;98787.41;;;10.68;70.77
60715;BME280;46564;53.096;8.246;2023-03-13T20:10:14;98774.50;;;10.55;71.34
60715;BME280;46564;53.096;8.246;2023-03-13T20:15:16;98776.38;;;10.46;71.82
60715;BME280;46564;53.096;8.246;2023-03-13T20:20:18;98778.22;;;10.40;72.12
60715;BME280;46564;53.096;8.246;2023-03-13T20:25:20;98767.81;;;10.34;72.60
60715;BME280;46564;53.096;8.246;2023-03-13T20:30:25;98781.84;;;10.27;73.13
60715;BME280;46564;53.096;8.246;2023-03-13T20:35:27;98774.16;;;10.15;73.57
60715;BME280;46564;53.096;8.246;2023-03-13T20:40:28;98777.66;;;10.14;74.14
60715;BME280;46564;53.096;8.246;2023-03-13T20:45:30;98758.44;;;10.19;74.30
60715;BME280;46564;53.096;8.246;2023-03-13T20:50:32;98756.53;;;10.29;74.68
60715;BME280;46564;53.096;8.246;2023-03-13T20:55:36;98761.66;;;10.38;74.98
60715;BME280;46564;53.096;8.246;2023-03-13T21:00:37;98755.50;;;10.42;75.16
60715;BME280;46564;53.096;8.246;2023-03-13T21:05:39;98765.06;;;10.45;75.16
60715;BME280;46564;53.096;8.246;2023-03-13T21:10:41;98767.69;;;10.43;75.43
60715;BME280;46564;53.096;8.246;2023-03-13T21:15:42;98775.56;;;10.43;75.51
60715;BME280;46564;53.096;8.246;2023-03-13T21:20:44;98773.69;;;10.50;75.74
60715;BME280;46564;53.096;8.246;2023-03-13T21:25:51;98782.41;;;10.49;75.66
60715;BME280;46564;53.096;8.246;2023-03-13T21:30:54;98792.06;;;10.46;76.09
60715;BME280;46564;53.096;8.246;2023-03-13T21:35:56;98790.28;;;10.49;76.23
60715;BME280;46564;53.096;8.246;2023-03-13T21:40:57;98796.31;;;10.54;76.64
60715;BME280;46564;53.096;8.246;2023-03-13T21:45:59;98771.97;;;10.48;76.60
60715;BME280;46564;53.096;8.246;2023-03-13T21:51:01;98772.16;;;10.35;76.97
60715;BME280;46564;53.096;8.246;2023-03-13T21:56:03;98772.25;;;10.27;77.08
60715;BME280;46564;53.096;8.246;2023-03-13T22:01:05;98768.88;;;10.21;77.58
60715;BME280;46564;53.096;8.246;2023-03-13T22:06:14;98747.91;;;10.24;77.83
60715;BME280;46564;53.096;8.246;2023-03-13T22:11:16;98747.91;;;10.22;77.68
60715;BME280;46564;53.096;8.246;2023-03-13T22:16:18;98741.00;;;10.17;77.94
60715;BME280;46564;53.096;8.246;2023-03-13T22:21:21;98747.22;;;10.09;78.15
60715;BME280;46564;53.096;8.246;2023-03-13T22:26:22;98725.41;;;10.11;78.12
60715;BME280;46564;53.096;8.246;2023-03-13T22:31:24;98721.94;;;10.07;78.25
60715;BME280;46564;53.096;8.246;2023-03-13T22:36:26;98721.16;;;10.03;78.01
60715;BME280;46564;53.096;8.246;2023-03-13T22:41:27;98726.50;;;9.94;78.08
60715;BME280;46564;53.096;8.246;2023-03-13T22:46:29;98726.41;;;10.02;78.17
60715;BME280;46564;53.096;8.246;2023-03-13T22:51:30;98715.78;;;10.13;77.86
60715;BME280;46564;53.096;8.246;2023-03-13T22:56:32;98700.91;;;10.16;77.81
60715;BME280;46564;53.096;8.246;2023-03-13T23:01:34;98690.34;;;10.24;77.46
60715;BME280;46564;53.096;8.246;2023-03-13T23:06:37;98690.38;;;10.22;77.26
60715;BME280;46564;53.096;8.246;2023-03-13T23:11:41;98665.25;;;10.11;77.28
60715;BME280;46564;53.096;8.246;2023-03-13T23:16:43;98653.22;;;10.00;77.44
60715;BME280;46564;53.096;8.246;2023-03-13T23:21:44;98653.22;;;10.00;77.59
60715;BME280;46564;53.096;8.246;2023-03-13T23:26:46;98649.81;;;9.92;77.54
60715;BME280;46564;53.096;8.246;2023-03-13T23:31:47;98640.34;;;9.86;77.87
60715;BME280;46564;53.096;8.246;2023-03-13T23:36:49;98650.81;;;9.86;77.79
60715;BME280;46564;53.096;8.246;2023-03-13T23:41:50;98651.75;;;9.81;78.11
60715;BME280;46564;53.096;8.246;2023-03-13T23:46:52;98663.22;;;9.70;78.33
60715;BME280;46564;53.096;8.246;2023-03-13T23:51:53;98648.50;;;9.63;78.64
60715;BME280;46564;53.096;8.246;2023-03-13T23:56:55;98637.28;;;9.55;78.76
